createdAt,value
2023-05-17T00:00:26.304Z,102544.28
2023-05-17T00:02:53.089Z,102544.81
2023-05-17T00:05:19.837Z,102534.41
2023-05-17T00:07:47.337Z,102519.41
2023-05-17T00:10:14.142Z,102567.63
2023-05-17T00:12:40.761Z,102554.28
2023-05-17T00:15:07.816Z,102520.28
2023-05-17T00:17:34.593Z,102498.28
2023-05-17T00:20:01.268Z,102532.16
2023-05-17T00:22:27.975Z,102554.81
2023-05-17T00:24:54.672Z,102532.63
2023-05-17T00:27:21.391Z,102525.53
2023-05-17T00:29:48.181Z,102516.88
2023-05-17T00:32:16.223Z,102528.13
2023-05-17T00:34:42.970Z,102559.91
2023-05-17T00:37:11.325Z,102557.84
2023-05-17T00:39:38.019Z,102565.69
2023-05-17T00:42:05.094Z,102543.16
2023-05-17T00:44:32.096Z,102562.41
2023-05-17T00:47:10.122Z,102570.50
2023-05-17T00:49:37.377Z,102555.88
2023-05-17T00:52:06.872Z,102522.75
2023-05-17T00:54:35.721Z,102556.22
2023-05-17T00:57:06.615Z,102560.97
2023-05-17T00:59:34.186Z,102556.03
2023-05-17T01:02:03.527Z,102559.66
2023-05-17T01:04:31.895Z,102550.47
2023-05-17T01:07:02.167Z,102545.22
2023-05-17T01:09:31.933Z,102506.63
2023-05-17T01:12:36.973Z,102554.97
2023-05-17T01:15:28.726Z,102544.50
2023-05-17T01:18:16.733Z,102552.44
2023-05-17T01:20:49.736Z,102538.41
2023-05-17T01:24:24.941Z,102513.81
2023-05-17T01:26:58.095Z,102548.34
2023-05-17T01:29:28.777Z,102536.38
2023-05-17T01:32:01.628Z,102558.44
2023-05-17T01:34:30.123Z,102558.69
2023-05-17T01:36:58.397Z,102551.75
2023-05-17T01:39:25.519Z,102553.59
2023-05-17T01:45:30.780Z,102559.25
2023-05-17T01:48:13.561Z,102549.56
2023-05-17T01:50:48.831Z,102545.34
2023-05-17T01:53:24.789Z,102548.94
2023-05-17T01:55:56.670Z,102550.72
2023-05-17T01:58:26.246Z,102555.19
2023-05-17T02:00:56.174Z,102565.50
2023-05-17T02:03:23.027Z,102567.22
2023-05-17T02:05:49.638Z,102572.13
2023-05-17T02:08:16.372Z,102565.16
2023-05-17T02:10:42.903Z,102563.75
2023-05-17T02:13:09.498Z,102566.16
2023-05-17T02:15:36.084Z,102563.47
2023-05-17T02:18:02.823Z,102555.50
2023-05-17T02:20:29.517Z,102569.34
2023-05-17T02:22:56.101Z,102568.28
2023-05-17T02:25:22.697Z,102568.28
2023-05-17T02:27:49.357Z,102565.47
2023-05-17T02:30:18.043Z,102568.75
2023-05-17T02:32:45.283Z,102565.84
2023-05-17T02:35:12.631Z,102558.13
2023-05-17T02:37:39.227Z,102583.28
2023-05-17T02:40:09.626Z,102564.41
2023-05-17T02:42:37.201Z,102573.41
2023-05-17T02:45:04.664Z,102582.69
2023-05-17T02:47:31.515Z,102586.63
2023-05-17T02:49:58.219Z,102584.53
2023-05-17T02:52:24.909Z,102582.66
2023-05-17T02:54:51.846Z,102584.69
2023-05-17T02:57:18.604Z,102593.19
2023-05-17T02:59:45.251Z,102587.94
2023-05-17T03:02:11.963Z,102588.69
2023-05-17T03:04:38.686Z,102593.47
2023-05-17T03:07:07.091Z,102594.03
2023-05-17T03:09:34.343Z,102594.78
2023-05-17T03:12:01.160Z,102594.03
2023-05-17T03:14:28.996Z,102606.72
2023-05-17T03:16:55.695Z,102598.88
2023-05-17T03:19:22.550Z,102599.28
2023-05-17T03:21:49.366Z,102596.66
2023-05-17T03:24:19.515Z,102573.19
2023-05-17T03:26:52.403Z,102579.97
2023-05-17T03:29:20.928Z,102607.84
2023-05-17T03:31:47.779Z,102610.03
2023-05-17T03:34:14.393Z,102610.69
2023-05-17T03:36:41.136Z,102619.09
2023-05-17T03:39:09.033Z,102608.59
2023-05-17T03:41:47.352Z,102587.63
2023-05-17T03:44:16.894Z,102567.47
2023-05-17T03:46:43.660Z,102583.09
2023-05-17T03:49:21.825Z,102609.56
2023-05-17T03:51:48.554Z,102573.91
2023-05-17T03:54:15.404Z,102591.88
2023-05-17T03:56:47.125Z,102632.22
2023-05-17T03:59:18.255Z,102637.50
2023-05-17T04:01:48.153Z,102598.25
2023-05-17T04:04:14.906Z,102599.06
2023-05-17T04:06:42.240Z,102608.53
2023-05-17T04:09:11.461Z,102616.50
2023-05-17T04:11:38.356Z,102644.94
2023-05-17T04:14:05.358Z,102620.66
2023-05-17T04:16:34.650Z,102629.88
2023-05-17T04:19:06.810Z,102619.50
2023-05-17T04:24:25.925Z,102656.25
2023-05-17T04:26:58.531Z,102639.34
2023-05-17T04:29:25.678Z,102627.50
2023-05-17T04:32:03.203Z,102621.31
2023-05-17T04:34:32.858Z,102664.19
2023-05-17T04:37:00.797Z,102642.28
2023-05-17T04:39:52.085Z,102675.63
2023-05-17T04:42:18.923Z,102654.63
2023-05-17T04:44:58.519Z,102657.25
2023-05-17T04:47:26.111Z,102688.75
2023-05-17T04:49:53.386Z,102692.22
2023-05-17T04:52:20.341Z,102655.16
2023-05-17T04:54:56.261Z,102673.50
2023-05-17T04:57:23.071Z,102649.31
2023-05-17T04:59:55.651Z,102662.84
2023-05-17T05:02:22.568Z,102678.66
2023-05-17T05:04:52.517Z,102704.63
2023-05-17T05:07:23.444Z,102684.97
2023-05-17T05:09:54.606Z,102672.66
2023-05-17T05:12:22.630Z,102660.41
2023-05-17T05:14:51.623Z,102688.88
2023-05-17T05:17:29.897Z,102703.38
2023-05-17T05:19:56.784Z,102688.00
2023-05-17T05:22:23.664Z,102675.97
2023-05-17T05:24:50.604Z,102708.19
2023-05-17T05:27:17.399Z,102689.06
2023-05-17T05:29:44.032Z,102728.47
2023-05-17T05:32:15.448Z,102706.94
2023-05-17T05:34:44.380Z,102724.59
2023-05-17T05:37:12.281Z,102676.06
2023-05-17T05:39:39.013Z,102713.00
2023-05-17T05:42:06.919Z,102690.16
2023-05-17T05:44:33.764Z,102740.22
2023-05-17T05:47:01.263Z,102744.69
2023-05-17T05:49:29.065Z,102741.28
2023-05-17T05:51:59.451Z,102748.44
2023-05-17T05:54:33.111Z,102761.38
2023-05-17T05:57:02.302Z,102754.03
2023-05-17T05:59:30.338Z,102735.69
2023-05-17T06:01:56.935Z,102771.53
2023-05-17T06:04:40.672Z,102759.09
2023-05-17T06:07:15.896Z,102777.56
2023-05-17T06:10:00.437Z,102758.56
2023-05-17T06:12:36.428Z,102771.25
2023-05-17T06:15:08.887Z,102773.31
2023-05-17T06:18:05.360Z,102774.41
2023-05-17T06:20:48.135Z,102783.97
2023-05-17T06:23:21.413Z,102773.56
2023-05-17T06:25:51.936Z,102780.41
2023-05-17T06:28:20.062Z,102785.09
2023-05-17T06:30:46.851Z,102787.81
2023-05-17T06:33:14.568Z,102799.94
2023-05-17T06:35:54.676Z,102797.47
2023-05-17T06:38:22.988Z,102785.59
2023-05-17T06:40:54.989Z,102765.63
2023-05-17T06:43:22.313Z,102790.69
2023-05-17T06:45:50.806Z,102770.59
2023-05-17T06:48:18.438Z,102785.59
2023-05-17T06:50:46.094Z,102774.00
2023-05-17T06:53:12.871Z,102797.28
2023-05-17T06:55:57.053Z,102808.78
2023-05-17T06:58:30.055Z,102814.88
2023-05-17T07:01:06.441Z,102818.56
2023-05-17T07:03:40.404Z,102817.28
2023-05-17T07:06:15.569Z,102785.50
2023-05-17T07:08:42.150Z,102821.44
2023-05-17T07:11:11.854Z,102816.81
2023-05-17T07:13:43.840Z,102837.53
2023-05-17T07:16:12.528Z,102841.34
2023-05-17T07:18:39.204Z,102830.09
2023-05-17T07:21:08.658Z,102812.69
2023-05-17T07:23:35.252Z,102808.56
2023-05-17T07:26:04.615Z,102837.06
2023-05-17T07:28:39.323Z,102836.91
2023-05-17T07:31:12.805Z,102843.13
2023-05-17T07:33:44.875Z,102812.38
2023-05-17T07:36:12.047Z,102831.00
2023-05-17T07:38:41.880Z,102861.72
2023-05-17T07:41:12.975Z,102840.41
2023-05-17T07:43:42.334Z,102859.13
2023-05-17T07:46:10.210Z,102870.63
2023-05-17T07:48:37.126Z,102862.19
2023-05-17T07:51:07.559Z,102865.16
2023-05-17T07:53:51.570Z,102878.63
2023-05-17T07:56:26.630Z,102878.00
2023-05-17T07:59:20.237Z,102882.56
2023-05-17T08:01:49.431Z,102898.22
2023-05-17T08:04:37.716Z,102890.13
2023-05-17T08:07:05.063Z,102874.09
2023-05-17T08:09:31.653Z,102878.03
2023-05-17T08:11:59.502Z,102882.03
2023-05-17T08:14:31.547Z,102881.16
2023-05-17T08:16:58.217Z,102862.38
2023-05-17T08:19:30.531Z,102887.91
2023-05-17T08:22:02.349Z,102890.75
2023-05-17T08:24:39.018Z,102879.34
2023-05-17T08:27:08.318Z,102898.81
2023-05-17T08:29:35.403Z,102881.72
2023-05-17T08:32:07.555Z,102901.22
2023-05-17T08:34:37.322Z,102890.00
2023-05-17T08:40:07.425Z,102902.72
2023-05-17T08:42:40.262Z,102894.13
2023-05-17T08:45:40.378Z,102909.69
2023-05-17T08:48:31.860Z,102902.41
2023-05-17T08:51:20.700Z,102897.91
2023-05-17T08:53:56.867Z,102898.50
2023-05-17T08:56:32.738Z,102912.72
2023-05-17T09:01:49.899Z,102905.41
2023-05-17T09:04:22.440Z,102910.03
2023-05-17T09:09:54.988Z,102902.81
2023-05-17T09:12:28.934Z,102885.09
2023-05-17T09:15:17.853Z,102894.28
2023-05-17T09:17:56.321Z,102916.53
2023-05-17T09:20:35.054Z,102913.13
2023-05-17T09:23:05.225Z,102878.53
2023-05-17T09:25:37.546Z,102915.56
2023-05-17T09:28:13.086Z,102910.91
2023-05-17T09:30:43.678Z,102926.72
2023-05-17T09:33:18.752Z,102930.06
2023-05-17T09:35:53.689Z,102929.09
2023-05-17T09:38:31.616Z,102917.13
2023-05-17T09:41:05.267Z,102918.59
2023-05-17T09:43:41.152Z,102916.72
2023-05-17T09:46:15.199Z,102922.34
2023-05-17T09:48:44.862Z,102934.81
2023-05-17T09:51:14.581Z,102931.81
2023-05-17T09:53:43.328Z,102926.00
2023-05-17T09:56:12.330Z,102922.28
2023-05-17T09:58:39.047Z,102933.13
2023-05-17T10:01:08.444Z,102932.25
2023-05-17T10:03:38.403Z,102934.75
2023-05-17T10:06:13.413Z,102923.88
2023-05-17T10:08:50.701Z,102927.59
2023-05-17T10:11:28.264Z,102939.72
2023-05-17T10:14:23.165Z,102932.00
2023-05-17T10:16:51.896Z,102937.44
2023-05-17T10:19:21.072Z,102927.53
2023-05-17T10:21:48.829Z,102941.69
2023-05-17T10:24:48.049Z,102948.78
2023-05-17T10:27:20.158Z,102926.56
2023-05-17T10:29:54.112Z,102947.97
2023-05-17T10:32:23.581Z,102951.00
2023-05-17T10:35:09.410Z,102930.94
2023-05-17T10:37:41.605Z,102944.84
2023-05-17T10:40:20.301Z,102945.16
2023-05-17T10:43:05.486Z,102949.19
2023-05-17T10:45:39.029Z,102947.63
2023-05-17T10:48:11.484Z,102935.69
2023-05-17T10:50:47.362Z,102939.41
2023-05-17T10:53:20.935Z,102939.41
2023-05-17T10:55:47.660Z,102944.63
2023-05-17T10:58:18.290Z,102948.75
2023-05-17T11:00:55.574Z,102948.75
2023-05-17T11:03:29.909Z,102947.16
2023-05-17T11:06:25.869Z,102939.56
2023-05-17T11:09:18.826Z,102938.81
2023-05-17T11:15:23.302Z,102946.88
2023-05-17T11:18:01.473Z,102948.56
2023-05-17T11:20:28.951Z,102952.88
2023-05-17T11:23:04.896Z,102955.97
2023-05-17T11:25:40.320Z,102964.88
2023-05-17T11:28:40.867Z,102958.50
2023-05-17T11:31:10.291Z,102961.97
2023-05-17T11:34:04.130Z,102955.09
2023-05-17T11:36:58.891Z,102955.16
2023-05-17T11:39:27.873Z,102948.91
2023-05-17T11:41:58.063Z,102938.22
2023-05-17T11:44:33.192Z,102936.66
2023-05-17T11:47:17.781Z,102950.06
2023-05-17T11:49:46.487Z,102948.25
2023-05-17T11:52:20.325Z,102942.84
2023-05-17T11:54:52.504Z,102917.91
2023-05-17T11:57:46.526Z,102950.56
2023-05-17T12:00:39.121Z,102938.28
2023-05-17T12:03:39.698Z,102945.69
2023-05-17T12:06:17.212Z,102939.69
2023-05-17T12:08:49.186Z,102942.25
2023-05-17T12:11:33.329Z,102940.59
2023-05-17T12:14:34.160Z,102939.94
2023-05-17T12:17:07.130Z,102926.41
2023-05-17T12:19:56.973Z,102931.00
2023-05-17T12:22:27.369Z,102914.59
2023-05-17T12:25:04.314Z,102939.41
2023-05-17T12:27:44.592Z,102941.34
2023-05-17T12:33:33.494Z,102935.69
2023-05-17T12:36:14.737Z,102930.97
2023-05-17T12:41:42.482Z,102928.03
2023-05-17T12:44:22.383Z,102922.13
2023-05-17T13:00:10.563Z,102913.06
2023-05-17T13:23:57.141Z,102912.97
2023-05-17T13:38:45.468Z,102918.66
2023-05-17T13:41:14.496Z,102907.88
2023-05-17T13:43:42.080Z,102858.59
2023-05-17T13:46:09.387Z,102890.41
2023-05-17T13:48:36.181Z,102916.59
2023-05-17T13:51:06.022Z,102903.25
2023-05-17T13:53:35.015Z,102879.91
2023-05-17T13:56:02.007Z,102876.25
2023-05-17T13:58:28.647Z,102870.06
2023-05-17T14:00:55.286Z,102915.28
2023-05-17T14:03:22.683Z,102890.34
2023-05-17T14:05:53.031Z,102871.41
2023-05-17T14:08:20.410Z,102859.72
2023-05-17T14:10:47.126Z,102911.16
2023-05-17T14:13:15.048Z,102891.88
2023-05-17T14:15:43.191Z,102877.41
2023-05-17T14:18:14.727Z,102879.53
2023-05-17T14:20:50.121Z,102880.00
2023-05-17T14:23:16.878Z,102874.72
2023-05-17T14:25:46.708Z,102913.19
2023-05-17T14:28:18.120Z,102893.84
2023-05-17T14:30:45.273Z,102889.06
2023-05-17T14:33:14.662Z,102883.13
2023-05-17T14:35:41.437Z,102874.44
2023-05-17T14:38:08.283Z,102862.75
2023-05-17T14:40:37.900Z,102855.16
2023-05-17T14:43:05.102Z,102882.31
2023-05-17T14:45:32.019Z,102878.19
2023-05-17T14:48:04.711Z,102881.44
2023-05-17T14:50:35.167Z,102883.19
2023-05-17T14:53:02.019Z,102880.13
2023-05-17T14:55:32.344Z,102888.84
2023-05-17T14:58:07.891Z,102880.72
2023-05-17T15:01:04.950Z,102892.75
2023-05-17T15:03:38.624Z,102854.25
2023-05-17T15:06:09.478Z,102882.63
2023-05-17T15:08:40.037Z,102856.47
2023-05-17T15:11:15.288Z,102869.19
2023-05-17T15:13:49.678Z,102858.31
2023-05-17T15:16:16.753Z,102887.00
2023-05-17T15:18:44.564Z,102873.03
2023-05-17T15:21:14.134Z,102874.50
2023-05-17T15:23:42.666Z,102906.75
2023-05-17T15:26:09.577Z,102887.34
2023-05-17T15:28:37.495Z,102876.28
2023-05-17T15:31:12.424Z,102892.34
2023-05-17T15:33:45.311Z,102899.41
2023-05-17T15:36:13.847Z,102871.78
2023-05-17T15:38:41.898Z,102880.53
2023-05-17T15:41:15.628Z,102909.47
2023-05-17T15:43:45.814Z,102897.28
2023-05-17T15:46:15.783Z,102897.19
2023-05-17T15:48:44.960Z,102901.59
2023-05-17T15:51:14.122Z,102897.09
2023-05-17T15:53:43.271Z,102899.66
2023-05-17T15:56:13.205Z,102849.50
2023-05-17T15:58:40.411Z,102904.03
2023-05-17T16:03:52.687Z,102871.53
2023-05-17T16:06:24.079Z,102851.25
2023-05-17T16:14:18.917Z,102873.47
2023-05-17T16:16:52.374Z,102870.28
2023-05-17T16:19:22.838Z,102903.56
2023-05-17T16:21:56.470Z,102894.66
2023-05-17T16:24:23.934Z,102876.06
2023-05-17T16:26:59.209Z,102878.75
2023-05-17T16:29:38.275Z,102877.31
2023-05-17T16:32:08.555Z,102885.53
2023-05-17T16:34:37.017Z,102908.31
2023-05-17T16:37:06.934Z,102891.06
2023-05-17T16:39:40.999Z,102907.25
2023-05-17T16:45:38.576Z,102872.84
2023-05-17T16:48:10.520Z,102886.06
2023-05-17T16:51:08.458Z,102912.50
2023-05-17T16:56:42.005Z,102879.00
2023-05-17T16:59:13.426Z,102872.63
2023-05-17T17:02:13.619Z,102913.56
2023-05-17T17:04:46.038Z,102876.41
2023-05-17T17:07:30.235Z,102902.41
2023-05-17T17:12:51.526Z,102925.75
2023-05-17T17:15:33.410Z,102895.03
2023-05-17T17:21:01.257Z,102890.59
2023-05-17T17:23:57.018Z,102880.88
2023-05-17T17:26:49.858Z,102898.59
2023-05-17T17:32:22.525Z,102862.50
2023-05-17T17:35:24.473Z,102887.38
2023-05-17T17:40:39.182Z,102891.97
2023-05-17T17:43:27.165Z,102877.56
2023-05-17T17:46:00.005Z,102901.53
2023-05-17T17:48:56.590Z,102868.94
2023-05-17T17:57:25.505Z,102876.09
2023-05-17T18:00:04.710Z,102877.22
2023-05-17T18:02:34.111Z,102906.31
2023-05-17T18:05:23.390Z,102902.28
2023-05-17T18:08:19.851Z,102936.50
2023-05-17T18:15:39.266Z,102944.16
2023-05-17T18:18:07.139Z,102938.97
2023-05-17T18:28:43.335Z,102938.44
2023-05-17T18:38:48.495Z,102936.94
2023-05-17T18:41:15.271Z,102931.47
2023-05-17T18:43:42.024Z,102934.19
2023-05-17T18:46:08.601Z,102923.38
2023-05-17T18:48:36.962Z,102924.25
2023-05-17T18:51:03.870Z,102930.00
2023-05-17T18:53:30.548Z,102924.41
2023-05-17T18:56:01.456Z,102941.84
2023-05-17T18:58:29.193Z,102946.72
2023-05-17T19:00:56.055Z,102948.34
2023-05-17T19:03:22.808Z,102945.00
2023-05-17T19:05:49.417Z,102942.22
2023-05-17T19:08:17.583Z,102944.44
2023-05-17T19:10:44.264Z,102946.75
2023-05-17T19:13:11.312Z,102950.28
2023-05-17T19:15:37.943Z,102943.94
2023-05-17T19:18:04.565Z,102956.66
2023-05-17T19:20:31.871Z,102956.47
2023-05-17T19:22:58.567Z,102949.66
2023-05-17T19:25:25.176Z,102946.50
2023-05-17T19:27:51.864Z,102945.94
2023-05-17T19:30:18.865Z,102947.84
2023-05-17T19:32:45.631Z,102941.75
2023-05-17T19:35:12.372Z,102956.25
2023-05-17T19:37:39.036Z,102954.22
2023-05-17T19:40:06.251Z,102956.59
2023-05-17T19:42:32.869Z,102958.97
2023-05-17T19:44:59.463Z,102946.31
2023-05-17T19:47:26.051Z,102958.66
2023-05-17T19:49:52.638Z,102962.72
2023-05-17T19:52:19.242Z,102970.16
2023-05-17T19:54:45.994Z,102969.16
2023-05-17T19:57:12.581Z,102968.94
2023-05-17T19:59:39.469Z,102974.00
2023-05-17T20:02:06.909Z,102968.66
2023-05-17T20:04:33.576Z,102982.56
2023-05-17T20:07:00.287Z,102970.13
2023-05-17T20:09:30.268Z,102977.69
2023-05-17T20:11:57.195Z,102969.63
2023-05-17T20:14:23.980Z,102971.28
2023-05-17T20:16:51.030Z,102971.94
2023-05-17T20:19:17.789Z,102971.78
2023-05-17T20:21:44.629Z,102970.81
2023-05-17T20:24:11.262Z,102964.13
2023-05-17T20:26:38.034Z,102973.78
2023-05-17T20:29:07.330Z,102959.81
2023-05-17T20:31:35.449Z,102969.28
2023-05-17T20:34:02.891Z,102969.94
2023-05-17T20:36:29.565Z,102970.88
2023-05-17T20:38:56.245Z,102964.56
2023-05-17T20:41:23.060Z,102964.25
2023-05-17T20:43:49.816Z,102970.97
2023-05-17T20:46:17.641Z,102971.00
2023-05-17T20:48:46.478Z,102971.59
2023-05-17T20:51:13.869Z,102973.72
2023-05-17T20:53:40.842Z,102972.59
2023-05-17T20:56:07.611Z,102967.06
2023-05-17T20:58:34.601Z,102963.31
2023-05-17T21:01:01.515Z,102965.09
2023-05-17T21:03:29.261Z,102972.84
2023-05-17T21:05:56.082Z,102972.47
2023-05-17T21:08:23.173Z,102968.94
2023-05-17T21:10:49.996Z,102965.41
2023-05-17T21:13:16.678Z,102961.56
2023-05-17T21:15:43.680Z,102977.06
2023-05-17T21:18:11.337Z,102969.91
2023-05-17T21:20:38.991Z,102972.00
2023-05-17T21:23:05.860Z,102973.28
2023-05-17T21:25:32.821Z,102981.97
2023-05-17T21:27:59.752Z,102974.81
2023-05-17T21:30:26.616Z,102981.41
2023-05-17T21:32:53.244Z,102978.75
2023-05-17T21:35:20.095Z,102990.56
2023-05-17T21:37:46.718Z,102978.25
2023-05-17T21:40:14.595Z,102975.94
2023-05-17T21:42:41.709Z,102976.75
2023-05-17T21:45:08.926Z,102975.78
2023-05-17T21:47:36.077Z,102980.78
2023-05-17T21:50:04.289Z,102985.63
2023-05-17T21:52:31.031Z,102973.53
2023-05-17T21:54:57.790Z,102967.91
2023-05-17T21:57:24.369Z,102991.19
2023-05-17T21:59:51.066Z,102981.56
2023-05-17T22:02:17.898Z,102980.34
2023-05-17T22:04:44.696Z,102976.81
2023-05-17T22:07:11.555Z,102977.78
2023-05-17T22:09:38.197Z,102982.81
2023-05-17T22:12:08.446Z,102977.34
2023-05-17T22:14:36.564Z,102982.66
2023-05-17T22:17:08.461Z,102981.59
2023-05-17T22:19:40.686Z,102984.00
2023-05-17T22:22:08.289Z,102991.00
2023-05-17T22:24:35.477Z,102987.94
2023-05-17T22:27:03.451Z,102987.69
2023-05-17T22:29:30.079Z,102995.91
2023-05-17T22:31:56.735Z,102983.94
2023-05-17T22:34:23.438Z,102987.19
2023-05-17T22:36:50.101Z,102990.19
2023-05-17T22:39:16.721Z,102986.13
2023-05-17T22:41:43.384Z,102984.91
2023-05-17T22:44:09.975Z,102994.13
2023-05-17T22:46:38.687Z,102995.53
2023-05-17T22:49:05.375Z,102996.06
2023-05-17T22:51:35.033Z,102993.25
2023-05-17T22:54:03.267Z,103000.94
2023-05-17T22:56:30.217Z,102989.09
2023-05-17T22:58:56.861Z,102994.22
2023-05-17T23:01:23.533Z,102994.13
2023-05-17T23:03:50.172Z,103001.66
2023-05-17T23:06:16.814Z,102998.91
2023-05-17T23:08:43.509Z,102990.13
2023-05-17T23:11:10.313Z,102994.28
2023-05-17T23:13:37.004Z,102987.13
2023-05-17T23:16:04.298Z,102995.16
2023-05-17T23:18:31.021Z,102989.13
2023-05-17T23:20:59.051Z,102989.50
2023-05-17T23:23:26.163Z,102986.63
2023-05-17T23:25:56.715Z,102999.66
2023-05-17T23:28:26.648Z,102994.16
2023-05-17T23:30:54.484Z,103001.56
2023-05-17T23:33:21.145Z,102996.53
2023-05-17T23:35:47.812Z,102994.59
2023-05-17T23:38:14.513Z,102989.78
2023-05-17T23:40:41.751Z,102990.66
2023-05-17T23:43:10.048Z,102995.72
2023-05-17T23:45:36.868Z,102991.97
2023-05-17T23:48:03.489Z,102995.94
2023-05-17T23:50:30.094Z,102994.16
2023-05-17T23:52:56.667Z,102980.91
2023-05-17T23:55:23.254Z,102997.63
2023-05-17T23:57:49.850Z,102987.72
